createdAt,value
2023-02-01T00:02:09.173Z,13.90
2023-02-01T00:04:39.109Z,13.90
2023-02-01T00:07:09.412Z,13.90
2023-02-01T00:09:39.442Z,13.90
2023-02-01T00:12:09.850Z,13.90
2023-02-01T00:14:41.451Z,13.90
2023-02-01T00:17:11.337Z,13.90
2023-02-01T00:19:40.981Z,13.90
2023-02-01T00:22:10.707Z,13.90
2023-02-01T00:24:40.879Z,13.90
2023-02-01T00:27:10.649Z,13.90
2023-02-01T00:29:40.679Z,13.80
2023-02-01T00:32:10.457Z,13.80
2023-02-01T00:34:40.535Z,13.80
2023-02-01T00:37:10.461Z,13.80
2023-02-01T00:39:40.091Z,13.80
2023-02-01T00:42:09.929Z,13.90
2023-02-01T00:44:39.975Z,14.00
2023-02-01T00:47:09.903Z,14.00
2023-02-01T00:49:39.915Z,14.10
2023-02-01T00:52:09.922Z,14.10
2023-02-01T00:54:40.514Z,14.20
2023-02-01T00:57:10.383Z,14.30
2023-02-01T00:59:40.368Z,14.30
2023-02-01T01:02:10.248Z,14.40
2023-02-01T01:04:40.422Z,14.50
2023-02-01T01:07:10.352Z,14.50
2023-02-01T01:09:40.182Z,14.60
2023-02-01T01:12:10.068Z,14.60
2023-02-01T01:14:40.722Z,14.80
2023-02-01T01:17:10.443Z,14.80
2023-02-01T01:19:40.364Z,14.90
2023-02-01T01:22:10.226Z,15.00
2023-02-01T01:24:39.986Z,15.10
2023-02-01T01:27:09.967Z,15.20
2023-02-01T01:29:40.278Z,15.30
2023-02-01T01:32:10.013Z,15.40
2023-02-01T01:34:40.060Z,15.50
2023-02-01T01:37:10.059Z,15.60
2023-02-01T01:39:39.861Z,15.80
2023-02-01T01:42:12.247Z,15.90
2023-02-01T01:45:06.688Z,16.00
2023-02-01T01:47:47.615Z,16.10
2023-02-01T01:50:21.342Z,16.20
2023-02-01T01:52:54.057Z,16.40
2023-02-01T01:55:26.487Z,16.60
2023-02-01T01:58:19.438Z,16.70
2023-02-01T02:00:50.563Z,16.90
2023-02-01T02:03:26.752Z,17.00
2023-02-01T02:06:00.702Z,17.20
2023-02-01T02:08:30.748Z,17.30
2023-02-01T02:11:03.678Z,17.40
2023-02-01T02:13:40.164Z,17.50
2023-02-01T02:16:37.138Z,17.70
2023-02-01T02:19:46.138Z,17.90
2023-02-01T02:22:44.289Z,18.00
2023-02-01T02:25:29.700Z,18.20
2023-02-01T02:28:38.727Z,18.30
2023-02-01T02:31:37.957Z,18.60
2023-02-01T02:34:35.101Z,18.80
2023-02-01T02:37:18.902Z,19.00
2023-02-01T02:40:27.896Z,19.20
2023-02-01T02:43:43.768Z,19.40
2023-02-01T02:46:45.704Z,19.60
2023-02-01T02:49:23.755Z,19.80
2023-02-01T02:52:22.438Z,20.00
2023-02-01T02:54:54.641Z,20.20
2023-02-01T02:57:55.083Z,20.40
2023-02-01T03:00:51.127Z,20.60
2023-02-01T03:03:40.681Z,20.70
2023-02-01T03:06:18.889Z,20.80
2023-02-01T03:08:49.058Z,21.00
2023-02-01T03:11:19.267Z,21.20
2023-02-01T03:14:00.819Z,21.30
2023-02-01T03:16:54.569Z,21.40
2023-02-01T03:19:38.622Z,21.60
2023-02-01T03:22:17.331Z,21.80
2023-02-01T03:24:57.959Z,22.00
2023-02-01T03:27:56.570Z,22.20
2023-02-01T03:30:37.777Z,22.30
2023-02-01T03:33:16.523Z,22.50
2023-02-01T03:36:16.956Z,22.60
2023-02-01T03:39:24.043Z,22.70
2023-02-01T03:42:03.856Z,22.80
2023-02-01T03:44:59.346Z,23.00
2023-02-01T03:47:35.356Z,23.00
2023-02-01T03:50:14.719Z,23.20
2023-02-01T03:52:59.879Z,23.40
2023-02-01T03:55:31.620Z,23.50
2023-02-01T03:58:10.976Z,23.70
2023-02-01T04:00:41.296Z,23.80
2023-02-01T04:03:11.707Z,24.00
2023-02-01T04:05:41.497Z,24.20
2023-02-01T04:08:11.330Z,24.30
2023-02-01T04:10:41.167Z,24.40
2023-02-01T04:13:11.076Z,24.50
2023-02-01T04:15:40.911Z,24.70
2023-02-01T04:18:11.707Z,24.80
2023-02-01T04:20:41.475Z,24.90
2023-02-01T04:23:11.260Z,25.00
2023-02-01T04:25:41.101Z,25.10
2023-02-01T04:28:11.758Z,25.20
2023-02-01T04:30:41.874Z,25.30
2023-02-01T04:33:11.757Z,25.50
2023-02-01T04:35:41.571Z,25.60
2023-02-01T04:38:11.436Z,25.60
2023-02-01T04:40:41.423Z,25.70
2023-02-01T04:43:11.289Z,25.90
2023-02-01T04:45:41.198Z,26.00
2023-02-01T04:48:10.965Z,26.10
2023-02-01T04:50:40.833Z,26.20
2023-02-01T04:53:10.763Z,26.30
2023-02-01T04:55:40.587Z,26.50
2023-02-01T04:58:10.443Z,26.50
2023-02-01T05:00:41.190Z,26.50
2023-02-01T05:03:11.012Z,26.60
2023-02-01T05:05:40.812Z,26.60
2023-02-01T05:08:10.708Z,26.70
2023-02-01T05:10:40.695Z,26.80
2023-02-01T05:13:32.959Z,26.90
2023-02-01T05:16:02.758Z,26.90
2023-02-01T05:18:33.237Z,27.00
2023-02-01T05:21:03.223Z,27.10
2023-02-01T05:23:32.980Z,27.20
2023-02-01T05:26:05.879Z,27.30
2023-02-01T05:28:35.583Z,27.30
2023-02-01T05:31:12.566Z,27.40
2023-02-01T05:33:42.494Z,27.50
2023-02-01T05:36:12.277Z,27.60
2023-02-01T05:38:41.994Z,27.70
2023-02-01T05:41:11.804Z,27.80
2023-02-01T05:43:41.490Z,27.80
2023-02-01T05:46:13.498Z,27.90
2023-02-01T05:48:44.120Z,27.90
2023-02-01T05:51:14.596Z,28.00
2023-02-01T05:53:44.412Z,28.00
2023-02-01T05:56:14.251Z,28.10
2023-02-01T05:58:44.292Z,28.20
2023-02-01T06:01:14.247Z,28.20
2023-02-01T06:03:43.983Z,28.30
2023-02-01T06:06:13.792Z,28.40
2023-02-01T06:08:43.642Z,28.50
2023-02-01T06:11:17.434Z,28.50
2023-02-01T06:13:52.977Z,28.60
2023-02-01T06:16:22.986Z,28.60
2023-02-01T06:18:53.852Z,28.70
2023-02-01T06:21:26.909Z,28.70
2023-02-01T06:23:57.751Z,28.80
2023-02-01T06:26:28.037Z,28.90
2023-02-01T06:28:58.491Z,29.00
2023-02-01T06:31:28.886Z,29.00
2023-02-01T06:33:58.709Z,29.10
2023-02-01T06:36:28.719Z,29.20
2023-02-01T06:38:59.760Z,29.20
2023-02-01T06:41:29.857Z,29.30
2023-02-01T06:43:59.866Z,29.40
2023-02-01T06:46:30.027Z,29.50
2023-02-01T06:49:02.445Z,29.50
2023-02-01T06:51:32.892Z,29.60
2023-02-01T06:54:03.491Z,29.60
2023-02-01T06:56:34.276Z,29.50
2023-02-01T06:59:07.977Z,29.60
2023-02-01T07:01:38.483Z,29.60
2023-02-01T07:04:08.563Z,29.60
2023-02-01T07:06:38.399Z,29.70
2023-02-01T07:09:08.384Z,29.70
2023-02-01T07:11:40.299Z,29.80
2023-02-01T07:14:10.198Z,29.80
2023-02-01T07:16:40.582Z,29.90
2023-02-01T07:19:11.037Z,29.90
2023-02-01T07:21:41.046Z,30.00
2023-02-01T07:24:10.898Z,30.10
2023-02-01T07:26:40.572Z,30.10
2023-02-01T07:29:10.395Z,30.10
2023-02-01T07:31:40.440Z,30.20
2023-02-01T07:34:10.302Z,30.20
2023-02-01T07:36:40.278Z,30.20
2023-02-01T07:39:09.959Z,30.20
2023-02-01T07:41:39.827Z,30.30
2023-02-01T07:44:09.567Z,30.30
2023-02-01T07:46:39.395Z,30.40
2023-02-01T07:49:09.700Z,30.40
2023-02-01T07:51:39.824Z,30.50
2023-02-01T07:54:09.614Z,30.60
2023-02-01T07:56:39.469Z,30.70
2023-02-01T07:59:10.460Z,30.70
2023-02-01T08:01:40.456Z,30.80
2023-02-01T08:04:12.372Z,30.70
2023-02-01T08:06:43.250Z,30.80
2023-02-01T08:09:14.017Z,30.80
2023-02-01T08:11:44.297Z,30.80
2023-02-01T08:14:14.210Z,30.80
2023-02-01T08:16:44.162Z,30.80
2023-02-01T08:19:14.568Z,30.80
2023-02-01T08:21:44.298Z,30.80
2023-02-01T08:24:14.252Z,30.80
2023-02-01T08:26:44.166Z,30.80
2023-02-01T08:29:15.962Z,30.80
2023-02-01T08:31:46.287Z,30.80
2023-02-01T08:34:16.122Z,30.80
2023-02-01T08:36:46.030Z,30.80
2023-02-01T08:39:15.998Z,30.80
2023-02-01T08:42:05.530Z,30.80
2023-02-01T08:44:35.433Z,30.80
2023-02-01T08:47:06.441Z,30.90
2023-02-01T08:49:36.342Z,30.90
2023-02-01T08:52:14.481Z,30.90
2023-02-01T08:54:45.425Z,30.90
2023-02-01T08:57:16.052Z,31.00
2023-02-01T08:59:47.007Z,31.00
2023-02-01T09:02:21.170Z,31.00
2023-02-01T09:04:51.130Z,31.00
2023-02-01T09:07:21.709Z,31.00
2023-02-01T09:09:51.767Z,31.00
2023-02-01T09:12:21.764Z,31.00
2023-02-01T09:14:51.564Z,31.00
2023-02-01T09:17:21.515Z,31.00
2023-02-01T09:19:52.017Z,31.00
2023-02-01T09:22:21.877Z,31.00
2023-02-01T09:24:53.102Z,31.00
2023-02-01T09:27:23.703Z,31.00
2023-02-01T09:29:55.213Z,30.90
2023-02-01T09:32:26.542Z,30.90
2023-02-01T09:34:56.593Z,30.90
2023-02-01T09:37:26.421Z,30.80
2023-02-01T09:39:56.385Z,30.80
2023-02-01T09:42:53.822Z,30.80
2023-02-01T09:46:04.853Z,30.80
2023-02-01T09:48:42.594Z,30.80
2023-02-01T09:51:20.556Z,30.70
2023-02-01T09:54:00.339Z,30.70
2023-02-01T09:56:55.188Z,30.60
2023-02-01T09:59:48.954Z,30.60
2023-02-01T10:02:27.992Z,30.50
2023-02-01T10:05:01.120Z,30.50
2023-02-01T10:08:09.948Z,30.50
2023-02-01T10:10:46.980Z,30.40
2023-02-01T10:13:39.660Z,30.40
2023-02-01T10:16:34.289Z,30.30
2023-02-01T10:19:27.463Z,30.20
2023-02-01T10:22:05.725Z,30.10
2023-02-01T10:24:45.894Z,30.10
2023-02-01T10:27:32.095Z,30.00
2023-02-01T10:30:07.050Z,29.90
2023-02-01T10:32:38.523Z,29.80
2023-02-01T10:35:21.254Z,29.70
2023-02-01T10:37:51.132Z,29.60
2023-02-01T10:40:26.511Z,29.60
2023-02-01T10:43:02.820Z,29.40
2023-02-01T10:45:35.531Z,29.40
2023-02-01T10:48:06.878Z,29.30
2023-02-01T10:50:43.773Z,29.20
2023-02-01T10:53:52.045Z,29.20
2023-02-01T10:56:29.476Z,29.00
2023-02-01T10:59:09.075Z,28.90
2023-02-01T11:01:43.087Z,28.80
2023-02-01T11:04:22.782Z,28.70
2023-02-01T11:07:10.270Z,28.60
2023-02-01T11:09:43.725Z,28.60
2023-02-01T11:12:37.820Z,28.40
2023-02-01T11:15:27.418Z,28.30
2023-02-01T11:18:01.745Z,28.30
2023-02-01T11:20:52.130Z,28.10
2023-02-01T11:23:27.303Z,28.00
2023-02-01T11:26:00.170Z,27.90
2023-02-01T11:28:37.536Z,27.70
2023-02-01T11:31:13.397Z,27.60
2023-02-01T11:33:52.726Z,27.60
2023-02-01T11:36:29.279Z,27.40
2023-02-01T11:39:35.235Z,27.30
2023-02-01T11:42:16.363Z,27.20
2023-02-01T11:44:49.589Z,27.10
2023-02-01T11:47:43.147Z,26.90
2023-02-01T11:50:42.864Z,26.80
2023-02-01T11:53:38.524Z,26.60
2023-02-01T11:56:30.709Z,26.40
2023-02-01T11:59:43.071Z,26.30
2023-02-01T12:02:44.107Z,26.10
2023-02-01T12:05:53.949Z,26.00
2023-02-01T12:09:02.976Z,25.80
2023-02-01T12:12:12.050Z,25.60
2023-02-01T12:15:02.326Z,25.20
2023-02-01T12:18:02.680Z,25.00
2023-02-01T12:21:11.708Z,24.90
2023-02-01T12:24:21.373Z,24.80
2023-02-01T12:27:13.760Z,24.80
2023-02-01T12:30:04.732Z,24.80
2023-02-01T12:33:09.569Z,24.70
2023-02-01T12:36:11.143Z,24.70
2023-02-01T12:39:14.712Z,24.60
2023-02-01T12:41:58.727Z,24.50
2023-02-01T12:44:40.329Z,24.40
2023-02-01T12:47:32.011Z,24.30
2023-02-01T12:50:25.355Z,24.20
2023-02-01T12:52:58.236Z,24.20
2023-02-01T12:55:38.616Z,24.10
2023-02-01T12:58:26.138Z,24.00
2023-02-01T13:01:06.243Z,24.00
2023-02-01T13:04:02.723Z,23.90
2023-02-01T13:06:49.954Z,23.80
2023-02-01T13:09:48.944Z,23.70
2023-02-01T13:12:44.451Z,23.60
2023-02-01T13:15:24.898Z,23.50
2023-02-01T13:17:56.906Z,23.50
2023-02-01T13:20:36.134Z,23.40
2023-02-01T13:23:28.996Z,23.30
2023-02-01T13:26:00.354Z,23.20
2023-02-01T13:28:51.444Z,23.20
2023-02-01T13:32:00.482Z,23.00
2023-02-01T13:35:09.385Z,23.00
2023-02-01T13:38:08.837Z,22.90
2023-02-01T13:40:51.830Z,22.80
2023-02-01T13:43:32.072Z,22.80
2023-02-01T13:46:08.730Z,22.70
2023-02-01T13:48:57.650Z,22.60
2023-02-01T13:51:49.275Z,22.40
2023-02-01T13:54:42.749Z,22.40
2023-02-01T13:57:41.102Z,22.30
2023-02-01T14:00:38.722Z,22.30
2023-02-01T14:03:18.486Z,22.20
2023-02-01T14:06:04.537Z,22.20
2023-02-01T14:08:44.003Z,22.10
2023-02-01T14:11:45.271Z,22.10
2023-02-01T14:14:42.381Z,22.10
2023-02-01T14:17:37.829Z,22.10
2023-02-01T14:20:42.398Z,22.00
2023-02-01T14:23:22.136Z,21.90
2023-02-01T14:26:05.466Z,21.80
2023-02-01T14:28:38.189Z,21.60
2023-02-01T14:31:38.116Z,21.60
2023-02-01T14:34:17.954Z,21.50
2023-02-01T14:37:11.546Z,21.40
2023-02-01T14:40:13.043Z,21.40
2023-02-01T14:42:51.881Z,21.50
2023-02-01T14:45:56.333Z,21.40
2023-02-01T14:48:47.999Z,21.40
2023-02-01T14:51:20.677Z,21.30
2023-02-01T14:53:50.898Z,21.30
2023-02-01T14:56:24.084Z,21.20
2023-02-01T14:59:11.403Z,21.10
2023-02-01T15:01:49.410Z,21.10
2023-02-01T15:04:24.299Z,21.00
2023-02-01T15:07:01.093Z,21.10
2023-02-01T15:09:39.249Z,21.00
2023-02-01T15:12:29.645Z,21.00
2023-02-01T15:15:23.809Z,21.00
2023-02-01T15:18:02.654Z,21.00
2023-02-01T15:20:34.607Z,20.90
2023-02-01T15:23:17.960Z,20.90
2023-02-01T15:25:51.826Z,20.90
2023-02-01T15:28:23.104Z,20.80
2023-02-01T15:31:03.548Z,20.80
2023-02-01T15:33:34.614Z,20.80
2023-02-01T15:36:12.618Z,20.80
2023-02-01T15:38:44.542Z,20.80
2023-02-01T15:41:20.675Z,20.70
2023-02-01T15:44:21.349Z,20.70
2023-02-01T15:46:53.752Z,20.70
2023-02-01T15:49:35.422Z,20.60
2023-02-01T15:52:05.985Z,20.60
2023-02-01T15:54:47.166Z,20.50
2023-02-01T15:57:33.048Z,20.50
2023-02-01T16:00:10.533Z,20.40
2023-02-01T16:02:46.931Z,20.30
2023-02-01T16:05:38.517Z,20.20
2023-02-01T16:08:29.150Z,20.10
2023-02-01T16:11:17.651Z,20.00
2023-02-01T16:13:47.428Z,20.00
2023-02-01T16:16:17.167Z,19.90
2023-02-01T16:18:47.770Z,19.90
2023-02-01T16:21:17.495Z,19.90
2023-02-01T16:23:51.073Z,19.90
2023-02-01T16:26:21.475Z,19.90
2023-02-01T16:28:51.627Z,19.80
2023-02-01T16:31:28.783Z,19.80
2023-02-01T16:33:59.162Z,19.80
2023-02-01T16:36:30.588Z,19.80
2023-02-01T16:39:00.679Z,19.80
2023-02-01T16:41:30.918Z,19.70
2023-02-01T16:44:00.849Z,19.80
2023-02-01T16:46:38.602Z,19.70
2023-02-01T16:49:08.500Z,19.70
2023-02-01T16:51:39.032Z,19.70
2023-02-01T16:54:09.611Z,19.60
2023-02-01T16:56:41.898Z,19.60
2023-02-01T16:59:11.997Z,19.50
2023-02-01T17:01:44.607Z,19.50
2023-02-01T17:04:14.409Z,19.40
2023-02-01T17:06:44.483Z,19.40
2023-02-01T17:09:14.437Z,19.40
2023-02-01T17:11:44.111Z,19.40
2023-02-01T17:14:24.217Z,19.40
2023-02-01T17:16:54.381Z,19.40
2023-02-01T17:19:26.233Z,19.40
2023-02-01T17:21:58.556Z,19.30
2023-02-01T17:24:47.643Z,19.30
2023-02-01T17:27:19.845Z,19.30
2023-02-01T17:29:50.956Z,19.20
2023-02-01T17:32:28.169Z,19.20
2023-02-01T17:35:00.222Z,19.20
2023-02-01T17:37:33.653Z,19.10
2023-02-01T17:40:04.188Z,19.20
2023-02-01T17:42:34.271Z,19.10
2023-02-01T17:45:18.268Z,19.10
2023-02-01T17:47:49.579Z,19.00
2023-02-01T17:50:19.662Z,19.00
2023-02-01T17:52:49.490Z,19.00
2023-02-01T17:55:24.489Z,19.00
2023-02-01T17:57:54.663Z,18.90
2023-02-01T18:00:24.595Z,18.90
2023-02-01T18:02:54.441Z,18.90
2023-02-01T18:05:29.330Z,18.90
2023-02-01T18:07:59.246Z,18.80
2023-02-01T18:10:29.127Z,18.80
2023-02-01T18:12:59.285Z,18.80
2023-02-01T18:15:30.002Z,18.70
2023-02-01T18:18:00.630Z,18.70
2023-02-01T18:20:30.971Z,18.60
2023-02-01T18:23:00.906Z,18.60
2023-02-01T18:25:38.997Z,18.60
2023-02-01T18:28:08.806Z,18.60
2023-02-01T18:30:38.998Z,18.50
2023-02-01T18:33:12.771Z,18.50
2023-02-01T18:35:43.177Z,18.50
2023-02-01T18:38:13.723Z,18.40
2023-02-01T18:40:54.294Z,18.30
2023-02-01T18:43:24.624Z,18.20
2023-02-01T18:45:54.475Z,18.00
2023-02-01T18:48:24.812Z,17.90
2023-02-01T18:50:59.016Z,17.90
2023-02-01T18:53:31.890Z,17.80
2023-02-01T18:56:02.315Z,17.90
2023-02-01T18:58:33.729Z,17.90
2023-02-01T19:01:11.779Z,17.90
2023-02-01T19:03:45.828Z,18.00
2023-02-01T19:06:18.279Z,18.00
2023-02-01T19:08:49.031Z,18.00
2023-02-01T19:11:18.848Z,18.00
2023-02-01T19:13:48.670Z,18.00
2023-02-01T19:16:18.596Z,18.00
2023-02-01T19:18:54.154Z,18.00
2023-02-01T19:21:23.972Z,18.00
2023-02-01T19:23:54.067Z,18.00
2023-02-01T19:26:24.226Z,18.00
2023-02-01T19:28:54.477Z,18.00
2023-02-01T19:31:24.428Z,17.90
2023-02-01T19:33:55.245Z,17.90
2023-02-01T19:36:25.297Z,17.90
2023-02-01T19:38:55.607Z,17.90
2023-02-01T19:41:25.570Z,17.80
2023-02-01T19:43:55.600Z,17.80
2023-02-01T19:46:25.328Z,17.70
2023-02-01T19:48:56.184Z,17.70
2023-02-01T19:51:26.151Z,17.70
2023-02-01T19:53:56.194Z,17.60
2023-02-01T19:56:26.095Z,17.60
2023-02-01T19:58:57.328Z,17.60
2023-02-01T20:01:27.290Z,17.60
2023-02-01T20:04:03.399Z,17.50
2023-02-01T20:06:39.123Z,17.50
2023-02-01T20:09:09.149Z,17.50
2023-02-01T20:11:38.999Z,17.50
2023-02-01T20:14:09.282Z,17.50
2023-02-01T20:16:39.322Z,17.50
2023-02-01T20:19:11.059Z,17.50
2023-02-01T20:21:43.858Z,17.50
2023-02-01T20:24:17.503Z,17.50
2023-02-01T20:26:48.986Z,17.50
2023-02-01T20:29:20.618Z,17.50
2023-02-01T20:31:50.621Z,17.50
2023-02-01T20:34:22.275Z,17.50
2023-02-01T20:36:52.157Z,17.50
2023-02-01T20:39:22.319Z,17.40
2023-02-01T20:41:52.242Z,17.50
2023-02-01T20:44:22.224Z,17.40
2023-02-01T20:46:51.972Z,17.40
2023-02-01T20:49:21.720Z,17.40
2023-02-01T20:51:51.623Z,17.40
2023-02-01T20:54:21.477Z,17.30
2023-02-01T20:56:51.680Z,17.30
2023-02-01T20:59:21.648Z,17.30
2023-02-01T21:01:54.860Z,17.30
2023-02-01T21:04:29.081Z,17.30
2023-02-01T21:07:00.539Z,17.30
2023-02-01T21:09:31.837Z,17.30
2023-02-01T21:12:01.747Z,17.30
2023-02-01T21:14:31.669Z,17.20
2023-02-01T21:17:01.413Z,17.20
2023-02-01T21:19:31.159Z,17.20
2023-02-01T21:22:00.760Z,17.10
2023-02-01T21:24:30.491Z,17.20
2023-02-01T21:27:00.534Z,17.10
2023-02-01T21:29:30.152Z,17.10
2023-02-01T21:32:00.322Z,17.10
2023-02-01T21:34:30.749Z,17.00
2023-02-01T21:37:00.550Z,17.00
2023-02-01T21:39:31.035Z,17.00
2023-02-01T21:42:20.369Z,16.90
2023-02-01T21:44:51.211Z,16.90
2023-02-01T21:47:26.710Z,16.90
2023-02-01T21:49:57.541Z,16.80
2023-02-01T21:52:27.760Z,16.80
2023-02-01T21:55:01.188Z,16.80
2023-02-01T21:57:32.016Z,16.80
2023-02-01T22:00:02.413Z,16.80
2023-02-01T22:02:32.374Z,16.70
2023-02-01T22:05:02.238Z,16.70
2023-02-01T22:07:31.925Z,16.70
2023-02-01T22:10:02.830Z,16.70
2023-02-01T22:12:32.566Z,16.70
2023-02-01T22:15:02.513Z,16.70
2023-02-01T22:17:33.447Z,16.70
2023-02-01T22:20:03.314Z,16.70
2023-02-01T22:22:33.190Z,16.70
2023-02-01T22:25:03.077Z,16.70
2023-02-01T22:28:30.884Z,16.70
2023-02-01T22:30:24.459Z,16.70
2023-02-01T22:32:54.502Z,16.70
2023-02-01T22:35:25.365Z,16.70
2023-02-01T22:37:55.606Z,16.70
2023-02-01T22:40:25.591Z,16.80
2023-02-01T22:42:55.380Z,16.80
2023-02-01T22:45:25.814Z,16.80
2023-02-01T22:47:55.804Z,16.80
2023-02-01T22:50:25.798Z,16.80
2023-02-01T22:52:55.796Z,16.80
2023-02-01T22:55:26.052Z,16.80
2023-02-01T22:57:56.014Z,16.90
2023-02-01T23:00:26.602Z,16.90
2023-02-01T23:02:56.473Z,16.90
2023-02-01T23:05:26.557Z,16.90
2023-02-01T23:07:56.360Z,16.90
2023-02-01T23:10:26.223Z,17.00
2023-02-01T23:12:56.227Z,17.00
2023-02-01T23:15:26.160Z,17.00
2023-02-01T23:17:56.011Z,17.00
2023-02-01T23:20:26.105Z,17.10
2023-02-01T23:22:55.928Z,17.10
2023-02-01T23:25:25.832Z,17.10
2023-02-01T23:27:55.929Z,17.10
2023-02-01T23:30:25.719Z,17.10
2023-02-01T23:32:55.552Z,17.20
2023-02-01T23:35:25.775Z,17.20
2023-02-01T23:37:55.821Z,17.20
2023-02-01T23:40:25.629Z,17.20
2023-02-01T23:43:15.017Z,17.20
2023-02-01T23:45:45.069Z,17.20
2023-02-01T23:48:14.950Z,17.20
2023-02-01T23:50:44.755Z,17.20
2023-02-01T23:53:14.463Z,17.20
2023-02-01T23:55:44.320Z,17.20
2023-02-01T23:58:14.145Z,17.20
